Athens Eleftherios, Greece

9:02 PM EEST on August 30, 2014 (GMT +0300)
Artemida Attika | Change Station
CLOSE
Current Station
Personal Weather Station
Location: Artemis, Attika
Elevation: 112 ft
Nearby Weather Stations

Elev 112 ft 37.94 °N, 24.00 °E | Updated 6 seconds ago

Clear
Clear
75.9 °F
Feels Like 78 °F
N
7.6
Wind Variable Wind from North
Gusts 11.4 mph

Today
High -- | Low -- °F
--% Chance of Precip.
Yesterday
High -- | Low -- °F
Precip. -- in
6:52 AM 7:57 PM
Waxing Crescent, 23% visible
Pressure 29.95 in
Visibility -9999.0 miles
Clouds
Heat Index 78 °F
Dew Point 54 °F
Humidity 46%
Rainfall 0.00 in
Snow Depth Not available.
UV Not available.
Pollen Not available.
Air Quality Not available.
Flu Activity Not available.
METAR LGAV 301720Z 02012KT CAVOK 24/11 Q1014 NOSIG

More Conditions Fewer Conditions

Pressure 29.95 in
Visibility -9999.0 miles
Clouds
Heat Index 78 °F
Dew Point 54 °F
Humidity 46%
Rainfall 0.00 in
Snow Depth Not available.
UV Not available.
Pollen Not available.
Air Quality Not available.
Flu Activity Not available.
METAR LGAV 301720Z 02012KT CAVOK 24/11 Q1014 NOSIG

More Conditions Fewer Conditions

10-Day Weather Forecast

Almanac

Astronomy

Aug. 30, 2014 Rise Set
Actual Time 6:52 AM EEST 7:57 PM EEST
Civil Twilight 6:25 AM EEST 8:24 PM EEST
Nautical Twilight 5:52 AM EEST 8:56 PM EEST
Astronomical Twilight 5:19 AM EEST 9:29 PM EEST
Moon 11:16 AM EEST 10:24 PM EEST
Length of Visible Light 13h 58m
Length of Day
13h 04m
Tomorrow will be 2m 19s shorter.
Waxing Crescent, 23% of the Moon is Illuminated
Today
Waxing Crescent
Sep 2
First Quarter
Sep 8
Full
Sep 15
Last Quarter
Sep 24
New

Today's Extremes

Country Highs Country Lows

Community

WunderPhotos

Upload Photos

1,748,582 photos uploaded!

WunderBlogs® & News

Nearby

Snow Depth

Not available.

Earthquake Activity

City Distance Mag. Time & Date
No recent earthquake activity has been reported nearby.
Minimum magnitude displayed is 2.5.

Coastal Water Temperatures

Place Temperature
No Stations Reporting

Nearby Weather Stations